Luga — C6DJ4 — position and weather

sailwx.info

Track history (hours):
 
Tides and Currents Weather Stations Pressure Air Temp Water Temp Dewpoint Dewpoint Depression Visibility Wind Speed Wind Dir Waves Ship Positions

Luga

Last reported at 2018-Feb-24 14:12 UTC. Time now 2018-Feb-25 15:38 UTC.
Position S 38°56' E 147°19'.

Length 170 m; draft 7.5 m.

Type: Cargo ship. MMSI: 311000692.

Date/timePositionNaut miles runAvg speedWind from/ knotsBaromVisibWave heightAir tempDewpointWater temp
2018-Feb-24 14:12S 38°56' E 147°19'510.7
2018-Feb-24 13:44S 38°55' E 147°26'310.9
2018-Feb-24 13:29S 38°54' E 147°29'510.3
2018-Feb-24 12:58S 38°52' E 147°35'510.1
2018-Feb-24 12:30S 38°51' E 147°41'510.3
2018-Feb-24 11:59S 38°49' E 147°48'810.2
2018-Feb-24 11:15S 38°47' E 147°57'410.6
2018-Feb-24 10:51S 38°45' E 148°02'910.5
2018-Feb-24 09:58S 38°43' E 148°13'1911.6
2018-Feb-24 08:18S 38°33' E 148°35'512.3
2018-Feb-24 07:54S 38°31' E 148°40'1612.5
2018-Feb-24 06:38S 38°22' E 148°57'212.5
2018-Feb-24 06:29S 38°21' E 148°59'  
2018-Feb-21 22:46S 33°50' E 151°23'8 5.6
2018-Feb-21 21:18S 33°54' E 151°32'0 1.5
2018-Feb-21 21:00S 33°53' E 151°33'1 1.8
2018-Feb-21 20:28S 33°52' E 151°33'4512.4
2018-Feb-21 16:50S 33°13' E 151°59'413.0
2018-Feb-21 16:30S 33°10' E 152°03'613.1
2018-Feb-21 16:00S 33°05' E 152°08'613.0
2018-Feb-21 15:30S 33°00' E 152°13'612.9
2018-Feb-21 15:00S 32°55' E 152°18'713.0
2018-Feb-21 14:30S 32°50' E 152°23'612.8
2018-Feb-21 14:00S 32°45' E 152°28'713.1
2018-Feb-21 13:30S 32°40' E 152°33'713.1
2018-Feb-21 13:00S 32°35' E 152°38'613.0
2018-Feb-21 12:30S 32°29' E 152°41'24212.7
2018-Feb-20 17:29S 28°34' E 153°45'712.0
2018-Feb-20 16:56S 28°27' E 153°44'511.9
2018-Feb-20 16:30S 28°22' E 153°43'612.2
2018-Feb-20 16:00S 28°16' E 153°44'612.7
2018-Feb-20 15:30S 28°09' E 153°44'612.4
2018-Feb-20 15:00S 28°03' E 153°43'612.5
2018-Feb-20 14:30S 27°57' E 153°43'612.4
2018-Feb-20 14:00S 27°51' E 153°43'612.6
2018-Feb-20 13:30S 27°44' E 153°43'712.9
2018-Feb-20 12:58S 27°38' E 153°42'612.6
2018-Feb-20 12:30S 27°32' E 153°42'712.5
2018-Feb-20 11:59S 27°25' E 153°42'612.5
2018-Feb-20 11:28S 27°19' E 153°42'  
Track history (hours):
 
Tides and Currents Weather Stations Pressure Air Temp Water Temp Dewpoint Dewpoint Depression Visibility Wind Speed Wind Dir Waves Ship Positions

Luga

Last reported at 2018-Feb-24 14:12 UTC. Time now 2018-Feb-25 15:38 UTC.
Position S 38°56' E 147°19'.

Length 170 m; draft 7.5 m.

Type: Cargo ship. MMSI: 311000692.

Date/timePositionNaut miles runAvg speedWind from/ knotsBaromVisibWave heightAir tempDewpointWater temp
2018-Feb-24 14:12S 38°56' E 147°19'510.7
2018-Feb-24 13:44S 38°55' E 147°26'310.9
2018-Feb-24 13:29S 38°54' E 147°29'510.3
2018-Feb-24 12:58S 38°52' E 147°35'510.1
2018-Feb-24 12:30S 38°51' E 147°41'510.3
2018-Feb-24 11:59S 38°49' E 147°48'810.2
2018-Feb-24 11:15S 38°47' E 147°57'410.6
2018-Feb-24 10:51S 38°45' E 148°02'910.5
2018-Feb-24 09:58S 38°43' E 148°13'1911.6
2018-Feb-24 08:18S 38°33' E 148°35'512.3
2018-Feb-24 07:54S 38°31' E 148°40'1612.5
2018-Feb-24 06:38S 38°22' E 148°57'212.5
2018-Feb-24 06:29S 38°21' E 148°59'  
2018-Feb-21 22:46S 33°50' E 151°23'8 5.6
2018-Feb-21 21:18S 33°54' E 151°32'0 1.5
2018-Feb-21 21:00S 33°53' E 151°33'1 1.8
2018-Feb-21 20:28S 33°52' E 151°33'4512.4
2018-Feb-21 16:50S 33°13' E 151°59'413.0
2018-Feb-21 16:30S 33°10' E 152°03'613.1
2018-Feb-21 16:00S 33°05' E 152°08'613.0
2018-Feb-21 15:30S 33°00' E 152°13'612.9
2018-Feb-21 15:00S 32°55' E 152°18'713.0
2018-Feb-21 14:30S 32°50' E 152°23'612.8
2018-Feb-21 14:00S 32°45' E 152°28'713.1
2018-Feb-21 13:30S 32°40' E 152°33'713.1
2018-Feb-21 13:00S 32°35' E 152°38'613.0
2018-Feb-21 12:30S 32°29' E 152°41'24212.7
2018-Feb-20 17:29S 28°34' E 153°45'712.0
2018-Feb-20 16:56S 28°27' E 153°44'511.9
2018-Feb-20 16:30S 28°22' E 153°43'612.2
2018-Feb-20 16:00S 28°16' E 153°44'612.7
2018-Feb-20 15:30S 28°09' E 153°44'612.4
2018-Feb-20 15:00S 28°03' E 153°43'612.5
2018-Feb-20 14:30S 27°57' E 153°43'612.4
2018-Feb-20 14:00S 27°51' E 153°43'612.6
2018-Feb-20 13:30S 27°44' E 153°43'712.9
2018-Feb-20 12:58S 27°38' E 153°42'612.6
2018-Feb-20 12:30S 27°32' E 153°42'712.5
2018-Feb-20 11:59S 27°25' E 153°42'612.5
2018-Feb-20 11:28S 27°19' E 153°42'  

Dump ship's entire track history